Time;durP1;ratioP1;P1;durP2;ratioP2;P2;SDS_P1;SDS_P2;PMS_P1;PMS_P2;Temp;Humidity;BMP_temperature;BMP_pressure;BME280_temperature;BME280_humidity;BME280_pressure;Samples;Min_cycle;Max_cycle;Signal;HPM_P1;HPM_P2
2022/05/22 00:02:02;;;;;;;20.27;5.30;;;;;;;19.68;62.34;100009.38;5055392;28;20481;-84
2022/05/22 00:04:28;;;;;;;17.10;5.20;;;;;;;19.65;62.24;100007.91;5055377;28;20111;-84
2022/05/22 00:06:55;;;;;;;15.10;4.57;;;;;;;19.65;62.42;99996.16;5060023;28;20025;-84
2022/05/22 00:09:21;;;;;;;14.63;4.57;;;;;;;19.63;62.38;99987.34;5077387;28;20108;-84
2022/05/22 00:11:47;;;;;;;11.02;4.00;;;;;;;19.68;62.46;99990.28;5055582;28;20063;-84
2022/05/22 00:14:13;;;;;;;14.50;4.82;;;;;;;19.61;62.64;99981.22;5055405;28;20032;-84
2022/05/22 00:16:41;;;;;;;15.65;4.82;;;;;;;19.58;62.68;99984.34;5054229;28;20078;-84
2022/05/22 00:19:38;;;;;;;18.42;4.85;;;;;;;19.67;62.90;99994.06;5054997;28;20099;-84
2022/05/22 00:22:05;;;;;;;27.73;5.82;;;;;;;19.64;63.10;99978.09;5054222;28;20531;-83
2022/05/22 00:24:31;;;;;;;13.40;5.10;;;;;;;19.67;63.05;99983.13;5055161;28;20029;-84
2022/05/22 00:27:02;;;;;;;17.98;6.07;;;;;;;19.68;63.27;99973.91;5053835;28;20035;-84
2022/05/22 00:29:29;;;;;;;18.58;5.70;;;;;;;19.70;63.64;99963.63;5053871;28;20029;-84
2022/05/22 00:31:55;;;;;;;15.00;5.63;;;;;;;19.68;63.96;99960.28;5053639;28;20487;-83
2022/05/22 00:34:21;;;;;;;23.85;6.63;;;;;;;19.71;64.04;99978.97;5054511;28;20035;-83
2022/05/22 00:36:46;;;;;;;23.98;6.15;;;;;;;19.65;64.22;99952.50;5054599;28;20041;-83
2022/05/22 00:39:12;;;;;;;14.50;6.03;;;;;;;19.72;64.36;99962.44;5054827;28;20217;-84
2022/05/22 00:41:38;;;;;;;17.02;5.63;;;;;;;19.71;64.28;99971.66;5054721;28;20037;-84
2022/05/22 00:44:05;;;;;;;19.17;7.20;;;;;;;19.65;64.23;99952.50;5054535;28;20028;-83
2022/05/22 00:46:32;;;;;;;18.55;6.22;;;;;;;19.66;64.19;99959.66;5054496;28;20025;-83
2022/05/22 00:49:09;;;;;;;16.40;6.03;;;;;;;19.75;63.57;99958.44;5054190;28;20029;-84
2022/05/22 00:51:37;;;;;;;15.88;5.57;;;;;;;19.72;63.51;99954.25;5053358;28;20036;-84
2022/05/22 00:54:21;;;;;;;18.17;5.90;;;;;;;19.74;63.05;99957.59;5053180;28;20036;-83
2022/05/22 00:56:56;;;;;;;14.60;5.95;;;;;;;19.78;62.72;99960.78;5055066;28;20025;-83
2022/05/22 00:59:32;;;;;;;19.08;6.07;;;;;;;19.83;62.72;99941.91;5052951;28;20136;-83
2022/05/22 01:01:59;;;;;;;18.30;5.55;;;;;;;19.90;61.50;99948.25;5054388;28;20024;-83
2022/05/22 01:04:29;;;;;;;10.43;5.05;;;;;;;19.93;59.76;99945.13;5070504;28;20115;-83
2022/05/22 01:06:54;;;;;;;6.50;3.28;;;;;;;19.99;58.42;99938.84;5054592;28;20062;-82
2022/05/22 01:09:20;;;;;;;11.18;3.90;;;;;;;20.03;57.39;99934.66;5054614;28;20100;-81
2022/05/22 01:11:50;;;;;;;10.80;4.25;;;;;;;20.08;56.80;99924.00;5054382;28;20475;-83
2022/05/22 01:14:22;;;;;;;10.93;4.35;;;;;;;20.19;55.57;99928.84;5054178;28;20028;-82
2022/05/22 01:16:49;;;;;;;5.78;3.22;;;;;;;20.24;55.14;99929.09;5054449;28;20029;-82
2022/05/22 01:19:17;;;;;;;5.78;3.53;;;;;;;20.32;54.95;99928.09;5054406;28;20024;-83
2022/05/22 01:22:01;;;;;;;6.55;3.40;;;;;;;20.41;54.01;99922.25;5053289;28;20116;-84
2022/05/22 01:24:27;;;;;;;6.32;3.33;;;;;;;20.36;53.37;99908.38;5036896;28;20390;-83
2022/05/22 01:26:56;;;;;;;11.63;4.28;;;;;;;20.50;53.59;99929.22;5054005;28;20033;-83
2022/05/22 01:29:22;;;;;;;7.18;3.13;;;;;;;20.59;53.04;99929.88;5053717;28;20025;-83
2022/05/22 01:31:48;;;;;;;7.32;3.20;;;;;;;20.64;52.01;99927.34;5053801;28;20035;-83
2022/05/22 01:34:14;;;;;;;8.90;3.90;;;;;;;20.68;51.70;99928.63;5054002;28;20107;-83
2022/05/22 01:36:39;;;;;;;6.00;2.95;;;;;;;20.79;51.18;99924.47;5053734;28;20041;-84
2022/05/22 01:39:05;;;;;;;15.45;3.05;;;;;;;20.81;51.25;99925.09;5054318;28;20049;-84
2022/05/22 01:41:31;;;;;;;9.77;2.85;;;;;;;20.79;51.04;99913.53;5060076;28;20044;-84
2022/05/22 01:43:56;;;;;;;7.25;2.83;;;;;;;20.83;50.78;99909.31;5063633;28;20021;-84
2022/05/22 01:46:22;;;;;;;5.22;3.00;;;;;;;20.90;50.88;99921.09;5058801;28;20080;-83
2022/05/22 01:48:47;;;;;;;7.03;3.38;;;;;;;20.87;51.06;99911.44;5066666;28;20034;-83
2022/05/22 01:51:13;;;;;;;6.18;3.15;;;;;;;20.95;50.91;99908.47;5055215;28;20025;-83
2022/05/22 01:53:38;;;;;;;8.85;3.10;;;;;;;20.95;50.75;99908.47;5054271;28;20082;-84
2022/05/22 01:56:04;;;;;;;4.93;2.80;;;;;;;20.90;50.77;99894.59;5053474;28;20051;-84
2022/05/22 01:58:29;;;;;;;16.92;4.00;;;;;;;20.91;50.95;99903.66;5053271;28;20040;-83
2022/05/22 02:00:55;;;;;;;7.35;3.50;;;;;;;20.91;51.16;99898.19;5053434;28;20116;-83
2022/05/22 02:03:21;;;;;;;8.18;3.60;;;;;;;20.89;51.33;99892.91;5053875;28;20032;-83
2022/05/22 02:05:47;;;;;;;9.50;4.32;;;;;;;20.89;51.50;99881.13;5053522;28;20132;-83
2022/05/22 02:08:24;;;;;;;11.18;3.67;;;;;;;20.96;51.33;99893.78;5053476;28;20390;-82
2022/05/22 02:10:57;;;;;;;7.20;3.75;;;;;;;20.98;51.38;99901.75;5053309;28;20024;-83
2022/05/22 02:13:25;;;;;;;13.68;3.75;;;;;;;20.97;51.47;99903.66;5052790;28;20048;-83
2022/05/22 02:15:52;;;;;;;11.32;3.90;;;;;;;20.95;51.52;99900.28;5053145;28;20090;-83
2022/05/22 02:18:17;;;;;;;12.65;3.22;;;;;;;20.90;51.55;99893.75;5053256;28;20493;-83
2022/05/22 02:20:43;;;;;;;11.20;4.25;;;;;;;20.95;51.84;99907.63;5052960;28;20029;-84
2022/05/22 02:23:09;;;;;;;7.25;3.65;;;;;;;20.95;52.05;99910.38;5052857;28;20052;-83
2022/05/22 02:25:37;;;;;;;13.30;2.92;;;;;;;20.97;51.82;99911.03;5052984;28;20463;-83
2022/05/22 02:28:05;;;;;;;7.75;2.90;;;;;;;20.93;51.54;99909.75;5052869;28;20494;-84
2022/05/22 02:30:34;;;;;;;14.95;4.20;;;;;;;20.95;51.83;99929.50;5052903;28;20021;-83
2022/05/22 02:33:00;;;;;;;8.70;3.75;;;;;;;20.97;51.98;99930.16;5052824;28;20083;-84
2022/05/22 02:35:26;;;;;;;19.98;4.53;;;;;;;20.89;51.93;99919.41;5052862;28;20029;-82
2022/05/22 02:37:54;;;;;;;9.70;4.18;;;;;;;20.85;52.38;99918.16;5052648;28;20474;-83
2022/05/22 02:40:22;;;;;;;12.60;4.80;;;;;;;20.81;52.62;99915.00;5059987;28;20056;-83
2022/05/22 02:42:50;;;;;;;11.05;4.43;;;;;;;20.77;53.08;99921.06;5052667;28;20021;-82
2022/05/22 02:45:18;;;;;;;20.13;7.93;;;;;;;20.55;54.10;99912.19;5052518;28;20464;-82
2022/05/22 02:47:44;;;;;;;23.20;9.65;;;;;;;20.37;55.45;99920.97;5053126;28;20112;-82
2022/05/22 02:50:12;;;;;;;21.42;10.77;;;;;;;20.39;56.02;99932.56;5052836;28;20104;-82
2022/05/22 02:52:37;;;;;;;20.23;11.25;;;;;;;20.23;56.41;99923.84;5052581;28;20021;-82
2022/05/22 02:55:05;;;;;;;26.63;13.13;;;;;;;20.21;56.72;99932.25;5052059;28;20023;-83
2022/05/22 02:57:35;;;;;;;29.50;13.98;;;;;;;20.23;56.84;99924.69;5052597;28;20087;-82
2022/05/22 03:00:01;;;;;;;31.17;13.52;;;;;;;20.28;56.82;99922.19;5051307;28;20028;-83
2022/05/22 03:02:26;;;;;;;35.13;15.77;;;;;;;20.22;57.21;99928.44;5052931;28;20021;-83
2022/05/22 03:04:52;;;;;;;35.13;17.25;;;;;;;20.07;57.64;99925.03;5052853;28;20044;-83
2022/05/22 03:07:18;;;;;;;35.50;17.85;;;;;;;20.01;57.87;99932.16;5051500;28;20081;-82
2022/05/22 03:09:45;;;;;;;28.50;17.48;;;;;;;20.00;58.28;99944.09;5052214;28;20013;-83
2022/05/22 03:12:19;;;;;;;32.00;15.07;;;;;;;19.90;58.47;99940.91;5052880;28;20025;-83
2022/05/22 03:14:51;;;;;;;28.50;13.20;;;;;;;19.89;58.63;99946.56;5052527;28;20108;-83
2022/05/22 03:17:17;;;;;;;22.67;12.25;;;;;;;19.86;59.01;99955.16;5052367;28;20079;-83
2022/05/22 03:19:42;;;;;;;39.92;12.20;;;;;;;19.89;59.11;99955.59;5052394;28;20558;-83
2022/05/22 03:22:10;;;;;;;23.17;11.88;;;;;;;19.88;59.53;99958.50;5052610;28;20064;-83
2022/05/22 03:24:35;;;;;;;19.20;10.82;;;;;;;19.79;59.82;99954.25;5059105;28;20060;-83
2022/05/22 03:27:03;;;;;;;26.88;11.63;;;;;;;19.78;60.11;99958.06;5072741;28;20037;-83
2022/05/22 03:29:29;;;;;;;37.55;16.50;;;;;;;19.84;60.23;99962.72;5052757;28;20025;-82
2022/05/22 03:31:54;;;;;;;33.70;12.55;;;;;;;19.81;60.40;99944.00;5052337;28;20071;-83
2022/05/22 03:34:20;;;;;;;31.13;11.93;;;;;;;19.85;60.48;99950.72;5052595;28;20017;-82
2022/05/22 03:36:45;;;;;;;22.17;11.68;;;;;;;19.77;60.91;99959.94;5051966;28;20045;-83
2022/05/22 03:39:10;;;;;;;21.48;11.77;;;;;;;19.65;61.40;99941.59;5052422;28;20025;-82
2022/05/22 03:41:37;;;;;;;20.60;10.18;;;;;;;19.56;61.72;99949.09;5052302;28;20021;-82
2022/05/22 03:44:03;;;;;;;17.05;8.60;;;;;;;19.45;61.58;99936.81;5052674;28;20013;-82
2022/05/22 03:46:29;;;;;;;13.90;6.75;;;;;;;19.66;61.13;99951.47;5053024;28;20025;-82
2022/05/22 03:48:54;;;;;;;16.80;6.72;;;;;;;19.68;61.14;99946.63;5052552;28;20021;-83
2022/05/22 03:51:20;;;;;;;20.33;6.97;;;;;;;19.77;61.20;99945.44;5052275;28;20032;-82
2022/05/22 03:53:45;;;;;;;21.17;10.23;;;;;;;19.90;60.74;99942.78;5052334;28;20541;-82
2022/05/22 03:56:13;;;;;;;14.35;6.45;;;;;;;19.93;60.45;99928.75;5052413;28;20025;-83
2022/05/22 03:58:39;;;;;;;11.93;5.32;;;;;;;20.08;60.27;99938.47;5050740;28;20462;-83
2022/05/22 04:01:06;;;;;;;10.50;5.15;;;;;;;20.24;59.79;99936.44;5051964;28;20121;-83
2022/05/22 04:03:32;;;;;;;13.02;5.00;;;;;;;20.31;59.39;99926.41;5051965;28;20057;-84
2022/05/22 04:05:57;;;;;;;12.40;4.93;;;;;;;20.39;59.32;99918.91;5052947;28;20056;-84
2022/05/22 04:08:23;;;;;;;10.90;4.68;;;;;;;20.43;59.22;99913.84;5055493;28;20036;-84
2022/05/22 04:10:48;;;;;;;35.17;9.70;;;;;;;20.34;60.35;99923.25;5055922;28;20464;-83
2022/05/22 04:13:13;;;;;;;19.33;9.15;;;;;;;20.32;61.09;99939.88;5055799;28;20021;-83
2022/05/22 04:15:39;;;;;;;13.68;9.07;;;;;;;20.35;61.08;99944.94;5070144;28;20029;-82
2022/05/22 04:18:04;;;;;;;36.50;10.35;;;;;;;20.36;61.15;99940.31;5054792;28;20400;-83
2022/05/22 04:20:31;;;;;;;22.30;9.02;;;;;;;20.46;60.94;99951.66;5054769;28;20029;-83
2022/05/22 04:25:55;;;;;;;21.45;10.35;;;;;;;20.54;60.91;99960.56;5057876;28;20067;-83
2022/05/22 04:28:25;;;;;;;17.02;8.80;;;;;;;20.61;60.79;99961.38;5065211;28;20081;-84
2022/05/22 04:30:52;;;;;;;16.67;8.27;;;;;;;20.63;60.68;99964.78;5054972;28;20048;-84
2022/05/22 04:33:18;;;;;;;15.80;8.30;;;;;;;20.68;60.65;99957.84;5055206;28;20110;-83
2022/05/22 04:35:44;;;;;;;23.67;8.50;;;;;;;20.78;60.54;99959.13;5054937;28;20024;-83
2022/05/22 04:38:11;;;;;;;20.60;8.95;;;;;;;20.85;60.36;99967.34;5054701;28;20503;-83
2022/05/22 04:40:37;;;;;;;26.02;8.48;;;;;;;20.92;60.07;99968.19;5055025;28;20100;-83
2022/05/22 04:43:04;;;;;;;16.50;8.38;;;;;;;20.98;59.83;99967.34;5054828;28;20056;-84
2022/05/22 04:45:30;;;;;;;14.90;7.72;;;;;;;21.00;59.91;99957.94;5055170;28;20051;-82
2022/05/22 04:47:55;;;;;;;19.92;6.70;;;;;;;21.05;59.93;99957.28;5055121;28;20029;-83
2022/05/22 04:50:21;;;;;;;17.42;5.35;;;;;;;21.05;59.36;99965.50;5054784;28;20075;-82
2022/05/22 04:52:46;;;;;;;11.45;3.72;;;;;;;21.16;58.85;99962.16;5054990;28;20021;-85
2022/05/22 04:55:12;;;;;;;14.63;4.13;;;;;;;21.33;57.42;99960.72;5054898;28;20020;-84
2022/05/22 04:57:37;;;;;;;14.50;4.10;;;;;;;21.47;56.86;99970.59;5055200;28;20063;-85
2022/05/22 05:00:06;;;;;;;11.88;3.95;;;;;;;21.49;57.01;99976.72;5055121;28;20053;-87
2022/05/22 05:02:32;;;;;;;21.75;4.25;;;;;;;21.57;56.53;99968.28;5054941;28;20033;-85
2022/05/22 05:04:58;;;;;;;17.33;3.80;;;;;;;21.64;56.25;99957.31;5075962;28;20035;-83
2022/05/22 05:07:24;;;;;;;12.82;3.50;;;;;;;21.76;56.10;99965.72;5067632;28;20509;-85
2022/05/22 05:09:51;;;;;;;12.45;3.70;;;;;;;21.84;55.80;99962.75;5056405;28;20529;-83
2022/05/22 05:12:17;;;;;;;16.90;3.33;;;;;;;21.86;55.19;99949.72;5054904;28;20075;-83
2022/05/22 05:14:43;;;;;;;25.92;3.85;;;;;;;22.00;55.12;99965.91;5054665;28;20064;-83
2022/05/22 05:17:11;;;;;;;15.82;4.15;;;;;;;21.99;54.99;99953.25;5053816;28;20031;-83
2022/05/22 05:19:36;;;;;;;34.33;4.70;;;;;;;22.10;54.68;99957.25;5054484;28;20029;-82
2022/05/22 05:22:02;;;;;;;10.25;3.00;;;;;;;22.13;54.69;99957.66;5054496;28;20457;-83
2022/05/22 05:24:28;;;;;;;10.77;3.50;;;;;;;22.12;54.77;99953.25;5054306;28;20097;-84
2022/05/22 05:26:55;;;;;;;14.80;3.92;;;;;;;22.11;54.72;99953.44;5054154;28;20559;-85
2022/05/22 05:29:24;;;;;;;15.25;4.97;;;;;;;22.20;54.85;99963.09;5054302;28;20171;-83
2022/05/22 05:31:50;;;;;;;10.75;3.97;;;;;;;22.24;54.70;99942.44;5054095;28;20063;-78
2022/05/22 05:34:15;;;;;;;25.80;3.80;;;;;;;22.20;54.98;99947.50;5062629;28;20021;-88
2022/05/22 05:36:41;;;;;;;28.70;4.35;;;;;;;22.23;55.27;99949.81;5061015;28;20060;-83
2022/05/22 05:39:08;;;;;;;29.17;4.28;;;;;;;22.26;54.58;99950.47;5059004;28;20399;-79
2022/05/22 05:41:37;;;;;;;34.30;5.97;;;;;;;22.19;54.67;99942.25;5059982;28;20086;-83
2022/05/22 05:44:07;;;;;;;18.13;3.65;;;;;;;22.27;54.79;99942.00;5061490;28;20384;-80
2022/05/22 05:46:33;;;;;;;15.23;3.25;;;;;;;22.27;54.55;99957.59;5053395;28;20040;-78
2022/05/22 05:48:59;;;;;;;20.95;4.18;;;;;;;22.21;54.57;99948.34;5060622;28;20088;-79
2022/05/22 05:51:24;;;;;;;18.83;3.70;;;;;;;22.27;54.91;99958.44;5054705;28;20116;-81
2022/05/22 05:53:50;;;;;;;27.00;4.07;;;;;;;22.28;54.72;99965.63;5053699;28;20025;-80
2022/05/22 05:56:16;;;;;;;29.02;4.20;;;;;;;22.31;54.59;99967.06;5053518;28;20025;-80
2022/05/22 05:58:42;;;;;;;24.10;3.95;;;;;;;22.32;55.43;99966.88;5052856;28;20028;-81
2022/05/22 06:01:11;;;;;;;29.95;4.07;;;;;;;22.29;54.98;99966.47;5051774;28;20025;-86
2022/05/22 06:03:37;;;;;;;20.15;4.35;;;;;;;22.31;55.13;99965.19;5053859;28;20024;-80
2022/05/22 06:06:06;;;;;;;36.25;4.50;;;;;;;22.19;55.26;99945.00;5052791;28;20463;-81
2022/05/22 06:08:32;;;;;;;26.27;4.68;;;;;;;22.24;55.11;99964.34;5052745;28;20116;-80
2022/05/22 06:10:58;;;;;;;27.38;4.88;;;;;;;22.26;55.79;99967.75;5052790;28;20057;-81
2022/05/22 06:13:24;;;;;;;22.48;4.00;;;;;;;22.32;56.16;99971.50;5051397;28;20021;-81
2022/05/22 06:15:50;;;;;;;17.95;4.63;;;;;;;22.34;56.00;99972.97;5052727;28;20032;-81
2022/05/22 06:18:15;;;;;;;26.33;4.68;;;;;;;22.38;56.44;99973.38;5051302;28;20039;-82
2022/05/22 06:20:40;;;;;;;11.40;3.45;;;;;;;22.49;55.89;99981.75;5051328;28;20032;-81
2022/05/22 06:23:06;;;;;;;19.60;4.13;;;;;;;22.58;55.52;99994.16;5052680;28;20029;-81
2022/05/22 06:25:33;;;;;;;12.80;3.63;;;;;;;22.58;55.31;99994.16;5052319;28;20419;-81
2022/05/22 06:28:00;;;;;;;19.17;3.25;;;;;;;22.73;54.37;99992.00;5052096;28;20459;-81
2022/05/22 06:30:25;;;;;;;27.65;3.60;;;;;;;22.76;55.05;100018.97;5052248;28;20028;-82
2022/05/22 06:32:51;;;;;;;21.92;4.40;;;;;;;22.84;55.25;99997.84;5052722;28;20100;-80
2022/05/22 06:35:16;;;;;;;4.63;3.05;;;;;;;22.96;54.99;100001.59;5052384;28;20039;-80
2022/05/22 06:37:42;;;;;;;7.57;2.88;;;;;;;23.00;54.82;100019.25;5052328;28;20080;-80
2022/05/22 06:40:09;;;;;;;11.82;3.75;;;;;;;23.06;54.39;100021.13;5050638;28;20471;-80
2022/05/22 06:42:42;;;;;;;12.20;3.40;;;;;;;23.12;54.71;100020.25;5052627;28;20029;-80
2022/05/22 06:45:11;;;;;;;;;;;;;;;23.14;54.74;100032.69;5053570;28;20036;-80
2022/05/22 06:47:37;;;;;;;10.70;4.45;;;;;;;23.21;54.67;100033.47;5074112;28;19908;-79
2022/05/22 06:50:05;;;;;;;14.75;4.95;;;;;;;23.20;54.75;100030.97;5053170;28;20402;-79
2022/05/22 06:52:32;;;;;;;25.50;3.85;;;;;;;23.13;54.75;100041.16;5051884;28;20112;-80
2022/05/22 06:54:59;;;;;;;11.98;3.30;;;;;;;23.19;54.90;100029.28;5051817;28;20410;-81
2022/05/22 06:57:24;;;;;;;16.13;3.45;;;;;;;23.30;54.84;100031.34;5052202;28;20481;-81
2022/05/22 06:59:53;;;;;;;12.60;3.17;;;;;;;23.49;55.16;100026.78;5051985;28;20028;-82
2022/05/22 07:02:19;;;;;;;31.17;4.43;;;;;;;23.63;54.97;100020.97;5052060;28;20021;-81
2022/05/22 07:04:44;;;;;;;7.10;3.25;;;;;;;23.74;53.96;100031.22;5050998;28;20094;-81
2022/05/22 07:07:10;;;;;;;13.23;3.35;;;;;;;23.90;52.98;100039.94;5052307;28;20029;-79
2022/05/22 07:09:36;;;;;;;23.27;3.63;;;;;;;23.88;53.30;100029.22;5052531;28;20452;-83
2022/05/22 07:12:05;;;;;;;18.23;4.00;;;;;;;23.97;53.69;100033.34;5051918;28;20025;-78
2022/05/22 07:14:32;;;;;;;21.00;3.50;;;;;;;23.98;53.63;100020.41;5051941;28;20024;-79
2022/05/22 07:17:03;;;;;;;14.95;3.10;;;;;;;24.06;53.22;100036.63;5056003;28;20040;-87
2022/05/22 07:19:28;;;;;;;14.80;3.20;;;;;;;24.17;52.31;100033.16;5052382;28;20100;-83
2022/05/22 07:21:53;;;;;;;27.35;4.80;;;;;;;24.13;52.56;100023.69;5052040;28;20530;-84
2022/05/22 07:24:19;;;;;;;12.35;4.32;;;;;;;24.11;51.98;100001.94;5052462;28;20094;-85
2022/05/22 07:26:44;;;;;;;15.07;4.38;;;;;;;24.25;52.12;100024.59;5053015;28;20033;-81
2022/05/22 07:29:10;;;;;;;18.48;3.83;;;;;;;24.25;52.08;100017.22;5052776;28;20033;-78
2022/05/22 07:31:39;;;;;;;19.10;3.47;;;;;;;24.27;52.08;100017.00;5051817;28;20029;-79
2022/05/22 07:34:04;;;;;;;10.13;3.40;;;;;;;24.11;52.63;100009.34;5051538;28;20029;-82
2022/05/22 07:36:30;;;;;;;11.18;4.03;;;;;;;24.17;52.42;100019.41;5051742;28;20431;-82
2022/05/22 07:38:55;;;;;;;26.02;3.63;;;;;;;24.30;52.65;100030.28;5050151;28;20052;-81
2022/05/22 07:41:21;;;;;;;16.38;4.68;;;;;;;24.37;52.13;100031.06;5055355;28;20025;-78
2022/05/22 07:43:46;;;;;;;25.60;5.40;;;;;;;24.56;52.35;100020.88;5055408;28;20036;-81
2022/05/22 07:46:13;;;;;;;11.77;4.00;;;;;;;24.62;52.05;100026.28;5055069;28;20028;-78
2022/05/22 07:48:41;;;;;;;19.85;3.40;;;;;;;24.78;51.60;100027.56;5053628;28;20047;-77
2022/05/22 07:51:07;;;;;;;21.45;3.60;;;;;;;24.84;51.32;100007.41;5055126;28;20021;-80
2022/05/22 07:53:32;;;;;;;26.35;5.65;;;;;;;24.92;51.46;100014.53;5054873;28;20055;-78
2022/05/22 07:55:58;;;;;;;19.38;5.05;;;;;;;24.99;51.21;100016.09;5053093;28;20029;-77
2022/05/22 07:58:25;;;;;;;16.80;5.28;;;;;;;25.16;50.75;100011.63;5054793;28;20029;-75
2022/05/22 08:00:52;;;;;;;16.67;3.50;;;;;;;25.25;50.47;100006.63;5055026;28;20112;-76
2022/05/22 08:03:19;;;;;;;16.17;4.13;;;;;;;25.34;50.29;100013.47;5054633;28;20021;-75
2022/05/22 08:05:44;;;;;;;16.05;4.20;;;;;;;25.31;50.01;100008.44;5054409;28;20036;-77
2022/05/22 08:08:11;;;;;;;12.73;3.67;;;;;;;25.39;49.74;100011.69;5054272;28;20703;-76
2022/05/22 08:10:39;;;;;;;18.42;3.78;;;;;;;25.36;49.50;100003.06;5054344;28;20033;-75
2022/05/22 08:13:05;;;;;;;14.80;3.20;;;;;;;25.47;49.42;100006.91;5054280;28;20029;-77
2022/05/22 08:15:33;;;;;;;20.98;3.05;;;;;;;25.36;49.53;100006.66;5054549;28;20056;-78
2022/05/22 08:17:59;;;;;;;20.13;4.90;;;;;;;25.48;49.96;100014.94;5054335;28;20090;-79
2022/05/22 08:20:27;;;;;;;12.15;3.55;;;;;;;25.63;49.25;100004.31;5053754;28;20036;-77
2022/05/22 08:22:55;;;;;;;28.23;4.80;;;;;;;25.59;48.88;100005.06;5056951;28;20049;-78
2022/05/22 08:25:21;;;;;;;22.27;3.45;;;;;;;25.65;48.42;99987.56;5055632;28;20150;-79
2022/05/22 08:27:47;;;;;;;13.02;3.65;;;;;;;25.65;47.94;99993.09;5060099;28;20017;-78
2022/05/22 08:30:15;;;;;;;28.10;3.90;;;;;;;25.57;48.21;99998.91;5074057;28;20121;-79
2022/05/22 08:32:42;;;;;;;33.85;4.38;;;;;;;25.57;48.07;100005.28;5054622;28;20057;-79
2022/05/22 08:35:11;;;;;;;13.70;3.72;;;;;;;25.60;47.32;99998.44;5054164;28;20485;-77
2022/05/22 08:37:36;;;;;;;16.73;4.38;;;;;;;25.59;47.46;100005.91;5053988;28;20451;-77
2022/05/22 08:40:04;;;;;;;22.52;4.57;;;;;;;25.63;47.13;100009.00;5053793;28;20037;-77
2022/05/22 08:42:41;;;;;;;22.95;3.53;;;;;;;25.46;47.90;100017.09;5053874;28;20504;-77
2022/05/22 08:45:15;;;;;;;16.95;3.33;;;;;;;25.06;48.51;100011.34;5053988;28;20057;-76
2022/05/22 08:48:07;;;;;;;18.88;3.10;;;;;;;24.92;48.95;100010.69;5053778;28;20466;-78
2022/05/22 08:50:36;;;;;;;14.40;3.00;;;;;;;24.73;49.22;100014.53;5053902;28;20032;-76
2022/05/22 08:53:09;;;;;;;18.08;3.28;;;;;;;24.53;49.62;100000.19;5053425;28;20055;-77
2022/05/22 09:01:23;;;;;;;15.85;3.28;;;;;;;24.38;49.61;100007.97;5053847;28;20134;-80
2022/05/22 09:03:57;;;;;;;16.23;3.50;;;;;;;24.15;48.99;100010.56;5053865;28;20024;-80
2022/05/22 09:07:02;;;;;;;14.98;2.72;;;;;;;24.12;49.85;100019.28;5054859;28;20029;-80
2022/05/22 09:09:31;;;;;;;22.13;3.63;;;;;;;24.07;49.68;100010.81;5033170;28;20045;-78
2022/05/22 09:12:19;;;;;;;11.90;3.67;;;;;;;24.24;49.51;100015.53;5054015;28;20021;-78
2022/05/22 09:15:19;;;;;;;21.17;3.72;;;;;;;24.25;48.70;100016.38;5032553;28;20071;-84
2022/05/22 09:18:16;;;;;;;10.25;2.50;;;;;;;24.15;49.14;100008.66;5046573;28;20112;-79
2022/05/22 09:20:59;;;;;;;22.77;2.75;;;;;;;24.35;48.56;100016.69;5051367;28;20047;-80
2022/05/22 09:24:12;;;;;;;16.02;3.13;;;;;;;24.24;47.73;100012.78;5054313;28;20097;-79
2022/05/22 09:26:55;;;;;;;19.20;3.13;;;;;;;24.19;47.54;100009.03;5045869;28;20113;-78
2022/05/22 09:29:46;;;;;;;16.55;2.95;;;;;;;24.22;47.40;100003.06;5054191;28;20035;-81
2022/05/22 09:32:48;;;;;;;9.32;2.38;;;;;;;24.29;47.71;100006.59;5054561;28;20541;-78
2022/05/22 09:35:36;;;;;;;10.80;2.38;;;;;;;24.47;47.01;100006.59;5053974;28;20039;-81
2022/05/22 09:38:22;;;;;;;11.75;2.50;;;;;;;24.66;46.81;100004.66;5053589;28;20057;-81
2022/05/22 09:40:53;;;;;;;14.60;2.58;;;;;;;24.76;46.17;99992.06;5053633;28;20063;-79
2022/05/22 09:43:32;;;;;;;11.02;3.22;;;;;;;25.07;45.59;99980.00;5053515;28;20031;-79
2022/05/22 09:46:22;;;;;;;37.55;3.28;;;;;;;25.27;44.25;99983.28;5054237;28;20098;-81
2022/05/22 09:49:09;;;;;;;9.57;3.03;;;;;;;25.33;42.91;99976.84;5053795;28;20063;-81
2022/05/22 09:51:54;;;;;;;12.60;2.85;;;;;;;25.33;42.35;99978.75;5056459;28;20021;-80
2022/05/22 09:54:22;;;;;;;18.45;3.03;;;;;;;25.27;42.32;99979.69;5054039;28;20025;-80
2022/05/22 09:57:10;;;;;;;35.65;2.83;;;;;;;25.24;41.47;99974.66;5054318;28;20032;-80
2022/05/22 09:59:39;;;;;;;10.07;2.35;;;;;;;25.20;41.67;99973.44;5022824;28;20040;-79
2022/05/22 10:02:36;;;;;;;13.68;2.78;;;;;;;25.22;41.57;99971.31;5054031;28;20052;-79
2022/05/22 10:05:11;;;;;;;14.68;2.25;;;;;;;25.26;42.06;99969.75;5053579;28;20099;-79
2022/05/22 10:08:03;;;;;;;8.85;2.65;;;;;;;25.23;43.76;99961.97;5055149;28;20028;-80
2022/05/22 10:10:50;;;;;;;15.70;2.53;;;;;;;25.23;44.79;99975.72;5068623;28;20044;-80
2022/05/22 10:13:25;;;;;;;42.60;3.30;;;;;;;25.26;44.86;99969.75;5063719;28;20048;-80
2022/05/22 10:16:36;;;;;;;9.23;2.60;;;;;;;25.24;45.47;99975.50;5053694;28;20113;-81
2022/05/22 10:19:20;;;;;;;17.40;2.67;;;;;;;25.17;45.65;99980.25;5039905;28;20106;-80
2022/05/22 10:22:05;;;;;;;15.27;2.58;;;;;;;24.85;46.86;99965.09;5052308;28;20028;-80
2022/05/22 10:24:45;;;;;;;19.63;2.83;;;;;;;24.87;46.77;99971.19;5052826;28;20513;-80
2022/05/22 10:27:47;;;;;;;9.63;3.15;;;;;;;24.84;47.34;99971.66;5052555;28;20372;-80
2022/05/22 10:30:26;;;;;;;10.80;2.50;;;;;;;25.05;45.71;99967.53;5052689;28;20032;-79
2022/05/22 10:33:05;;;;;;;13.65;2.53;;;;;;;25.05;45.70;99964.78;5052375;28;20033;-80
2022/05/22 10:36:08;;;;;;;11.02;2.42;;;;;;;25.23;45.54;99970.22;5052076;28;20051;-80
2022/05/22 10:38:44;;;;;;;12.25;2.25;;;;;;;25.16;44.97;99962.09;5039455;28;20049;-80
2022/05/22 10:44:46;;;;;;;8.38;2.08;;;;;;;24.70;44.80;99957.22;5026584;28;20118;-80
2022/05/22 10:47:12;;;;;;;9.50;2.25;;;;;;;24.67;44.87;99956.84;5052116;28;20100;-82
2022/05/22 10:49:44;;;;;;;16.08;2.67;;;;;;;24.69;44.75;99957.44;5051725;28;20029;-81
2022/05/22 10:52:22;;;;;;;11.40;2.80;;;;;;;24.74;43.83;99949.34;5051836;28;20025;-81
2022/05/22 10:54:53;;;;;;;7.78;1.85;;;;;;;25.02;43.33;99951.50;5052136;28;20090;-79
2022/05/22 10:57:28;;;;;;;13.93;2.63;;;;;;;25.08;42.69;99936.78;5052283;28;20394;-79
2022/05/22 10:59:54;;;;;;;11.35;2.30;;;;;;;25.18;41.81;99953.56;5051753;28;20028;-81
2022/05/22 11:02:25;;;;;;;10.63;3.08;;;;;;;25.22;42.30;99932.78;5051748;28;20048;-80
2022/05/22 11:04:53;;;;;;;29.65;2.58;;;;;;;25.35;41.69;99929.81;5051852;28;20107;-80
2022/05/22 11:07:51;;;;;;;9.85;2.30;;;;;;;25.52;40.60;99928.06;5051769;28;20021;-80
2022/05/22 11:10:22;;;;;;;24.15;2.28;;;;;;;25.76;39.60;99934.38;5051220;28;20029;-80
2022/05/22 11:12:59;;;;;;;21.83;3.30;;;;;;;25.50;39.55;99919.19;5051869;28;20025;-79
2022/05/22 11:15:28;;;;;;;13.52;2.50;;;;;;;25.43;39.94;99923.94;5053923;28;20024;-79
2022/05/22 11:18:08;;;;;;;19.40;2.78;;;;;;;25.44;39.80;99923.69;5055679;28;20076;-81
2022/05/22 11:20:38;;;;;;;14.68;2.30;;;;;;;25.39;39.39;99922.72;5055725;28;20108;-80
2022/05/22 11:23:42;;;;;;;14.18;2.38;;;;;;;25.52;39.50;99924.44;5055755;28;20035;-80
2022/05/22 11:26:40;;;;;;;21.58;2.53;;;;;;;25.39;39.54;99922.72;5055542;28;20040;-79
2022/05/22 11:29:32;;;;;;;15.43;2.33;;;;;;;25.44;38.75;99922.88;5055443;28;20117;-80
2022/05/22 11:32:00;;;;;;;15.43;2.88;;;;;;;25.32;39.13;99922.84;5056158;28;20021;-79
2022/05/22 11:34:38;;;;;;;17.67;2.15;;;;;;;25.37;39.11;99916.63;5056225;28;20028;-80
2022/05/22 11:37:03;;;;;;;14.52;2.30;;;;;;;25.40;39.40;99905.16;5055545;28;20051;-80
2022/05/22 11:39:51;;;;;;;15.90;1.98;;;;;;;25.34;38.95;99908.84;5055407;28;20029;-80
2022/05/22 11:42:37;;;;;;;14.10;1.75;;;;;;;25.39;38.65;99906.22;5049651;28;20092;-80
2022/05/22 11:45:12;;;;;;;10.70;1.73;;;;;;;25.46;38.10;99898.69;5055475;28;20031;-81
2022/05/22 11:48:05;;;;;;;14.95;2.67;;;;;;;25.16;38.36;99911.69;5054282;28;20437;-79
2022/05/22 11:50:56;;;;;;;20.80;1.65;;;;;;;25.25;38.14;99911.13;5057802;28;20056;-81
2022/05/22 11:53:48;;;;;;;17.10;2.55;;;;;;;25.00;38.27;99901.38;5054431;28;20049;-80